sensor_id;sensor_type;location;lat;lon;timestamp;pressure;altitude;pressure_sealevel;temperature;humidity
58467;BME280;44255;49.244;7.726;2022-12-11T04:32:21;97800.53;;;0.45;76.44
58467;BME280;44255;49.244;7.726;2022-12-11T04:34:46;97799.84;;;0.09;77.34
58467;BME280;44255;49.244;7.726;2022-12-11T04:37:11;97791.22;;;-0.23;78.14
58467;BME280;44255;49.244;7.726;2022-12-11T04:39:36;97792.13;;;-0.38;79.23
58467;BME280;44255;49.244;7.726;2022-12-11T04:42:01;97785.16;;;-0.34;80.32
58467;BME280;44255;49.244;7.726;2022-12-11T04:44:27;97785.00;;;0.06;79.05
58467;BME280;44255;49.244;7.726;2022-12-11T04:46:52;97762.16;;;4.75;64.54
58467;BME280;44255;49.244;7.726;2022-12-11T04:49:17;97746.00;;;5.93;57.70
58467;BME280;44255;49.244;7.726;2022-12-11T04:51:42;97746.34;;;6.12;55.86
58467;BME280;44255;49.244;7.726;2022-12-11T04:54:07;97743.25;;;6.28;55.13
58467;BME280;44255;49.244;7.726;2022-12-11T04:56:33;97738.31;;;6.17;55.25
58467;BME280;44255;49.244;7.726;2022-12-11T04:58:58;97736.59;;;6.46;54.41
58467;BME280;44255;49.244;7.726;2022-12-11T05:01:23;97744.59;;;6.43;54.10
58467;BME280;44255;49.244;7.726;2022-12-11T05:03:48;97746.09;;;6.22;54.89
58467;BME280;44255;49.244;7.726;2022-12-11T05:06:14;97745.59;;;6.09;54.95
58467;BME280;44255;49.244;7.726;2022-12-11T05:08:39;97743.47;;;6.22;54.53
58467;BME280;44255;49.244;7.726;2022-12-11T05:11:06;97745.75;;;6.34;54.68
58467;BME280;44255;49.244;7.726;2022-12-11T05:13:31;97743.22;;;6.30;53.88
58467;BME280;44255;49.244;7.726;2022-12-11T05:15:57;97744.97;;;6.31;54.17
58467;BME280;44255;49.244;7.726;2022-12-11T05:18:22;97740.16;;;6.14;54.71
58467;BME280;44255;49.244;7.726;2022-12-11T05:21:01;97740.59;;;6.30;54.17
58467;BME280;44255;49.244;7.726;2022-12-11T05:23:27;97736.59;;;6.15;54.25
58467;BME280;44255;49.244;7.726;2022-12-11T05:25:53;97737.34;;;6.20;54.75
58467;BME280;44255;49.244;7.726;2022-12-11T05:28:19;97737.28;;;6.21;54.55
58467;BME280;44255;49.244;7.726;2022-12-11T05:30:45;97733.25;;;6.09;54.42
58467;BME280;44255;49.244;7.726;2022-12-11T05:33:10;97726.56;;;6.28;53.99
58467;BME280;44255;49.244;7.726;2022-12-11T05:35:35;97725.69;;;6.27;54.34
58467;BME280;44255;49.244;7.726;2022-12-11T05:38:00;97730.88;;;6.30;54.22
58467;BME280;44255;49.244;7.726;2022-12-11T05:40:26;97727.25;;;6.03;54.75
58467;BME280;44255;49.244;7.726;2022-12-11T05:42:51;97720.50;;;5.92;54.99
58467;BME280;44255;49.244;7.726;2022-12-11T05:45:16;97726.59;;;6.26;54.62
58467;BME280;44255;49.244;7.726;2022-12-11T05:47:41;97727.84;;;6.12;54.58
58467;BME280;44255;49.244;7.726;2022-12-11T05:50:07;97721.19;;;6.31;54.17
58467;BME280;44255;49.244;7.726;2022-12-11T05:52:32;97718.78;;;6.80;52.72
58467;BME280;44255;49.244;7.726;2022-12-11T05:54:57;97712.19;;;6.93;52.83
58467;BME280;44255;49.244;7.726;2022-12-11T05:57:22;97719.06;;;6.99;52.38
58467;BME280;44255;49.244;7.726;2022-12-11T05:59:47;97719.91;;;6.73;52.96
58467;BME280;44255;49.244;7.726;2022-12-11T06:02:12;97718.28;;;6.68;53.13
58467;BME280;44255;49.244;7.726;2022-12-11T06:04:38;97718.91;;;6.77;53.26
58467;BME280;44255;49.244;7.726;2022-12-11T06:07:03;97708.66;;;6.93;52.45
58467;BME280;44255;49.244;7.726;2022-12-11T06:09:28;97714.56;;;7.03;52.29
58467;BME280;44255;49.244;7.726;2022-12-11T06:11:53;97712.41;;;6.87;52.23
58467;BME280;44255;49.244;7.726;2022-12-11T06:14:19;97722.81;;;6.92;51.92
58467;BME280;44255;49.244;7.726;2022-12-11T06:16:44;97725.56;;;6.89;52.67
58467;BME280;44255;49.244;7.726;2022-12-11T06:19:15;97723.56;;;6.68;52.82
58467;BME280;44255;49.244;7.726;2022-12-11T06:21:42;97715.44;;;6.75;52.67
58467;BME280;44255;49.244;7.726;2022-12-11T06:24:09;97721.69;;;6.72;53.04
58467;BME280;44255;49.244;7.726;2022-12-11T06:26:34;97715.13;;;6.55;53.75
58467;BME280;44255;49.244;7.726;2022-12-11T06:28:59;97709.00;;;6.83;53.01
58467;BME280;44255;49.244;7.726;2022-12-11T06:31:24;97701.41;;;6.73;53.40
58467;BME280;44255;49.244;7.726;2022-12-11T06:33:50;97705.09;;;6.08;53.80
58467;BME280;44255;49.244;7.726;2022-12-11T06:36:16;97702.16;;;6.48;53.83
58467;BME280;44255;49.244;7.726;2022-12-11T06:38:41;97695.66;;;6.60;53.35
58467;BME280;44255;49.244;7.726;2022-12-11T06:41:07;97706.28;;;6.57;53.43
58467;BME280;44255;49.244;7.726;2022-12-11T06:43:33;97703.81;;;6.52;54.02
58467;BME280;44255;49.244;7.726;2022-12-11T06:46:01;97705.13;;;6.65;53.72
58467;BME280;44255;49.244;7.726;2022-12-11T06:48:27;97706.69;;;6.73;53.11
58467;BME280;44255;49.244;7.726;2022-12-11T06:50:52;97707.09;;;6.59;53.69
58467;BME280;44255;49.244;7.726;2022-12-11T06:53:17;97705.00;;;6.42;53.74
58467;BME280;44255;49.244;7.726;2022-12-11T06:55:42;97702.13;;;6.78;53.32
58467;BME280;44255;49.244;7.726;2022-12-11T06:58:08;97703.41;;;6.64;53.11
58467;BME280;44255;49.244;7.726;2022-12-11T07:00:34;97707.09;;;6.59;53.83
58467;BME280;44255;49.244;7.726;2022-12-11T07:02:59;97711.56;;;6.57;53.46
58467;BME280;44255;49.244;7.726;2022-12-11T07:05:24;97708.19;;;6.23;54.04
58467;BME280;44255;49.244;7.726;2022-12-11T07:07:51;97707.06;;;6.60;53.82
58467;BME280;44255;49.244;7.726;2022-12-11T07:10:16;97714.69;;;6.41;53.83
58467;BME280;44255;49.244;7.726;2022-12-11T07:12:42;97712.47;;;6.57;53.65
58467;BME280;44255;49.244;7.726;2022-12-11T07:15:07;97712.25;;;6.63;53.48
58467;BME280;44255;49.244;7.726;2022-12-11T07:17:32;97706.69;;;6.44;53.53
58467;BME280;44255;49.244;7.726;2022-12-11T07:19:57;97712.56;;;6.54;53.98
58467;BME280;44255;49.244;7.726;2022-12-11T07:22:22;97707.63;;;6.70;53.38
58467;BME280;44255;49.244;7.726;2022-12-11T07:24:47;97705.81;;;6.44;54.16
58467;BME280;44255;49.244;7.726;2022-12-11T07:27:13;97714.19;;;6.58;53.78
58467;BME280;44255;49.244;7.726;2022-12-11T07:29:38;97704.47;;;6.87;52.77
58467;BME280;44255;49.244;7.726;2022-12-11T07:32:03;97718.56;;;6.59;53.29
58467;BME280;44255;49.244;7.726;2022-12-11T07:34:29;97712.56;;;6.24;53.84
58467;BME280;44255;49.244;7.726;2022-12-11T07:36:54;97720.53;;;6.22;54.14
58467;BME280;44255;49.244;7.726;2022-12-11T07:39:19;97714.28;;;6.26;53.94
58467;BME280;44255;49.244;7.726;2022-12-11T07:41:44;97718.00;;;6.48;53.68
58467;BME280;44255;49.244;7.726;2022-12-11T07:44:10;97723.41;;;6.45;53.54
58467;BME280;44255;49.244;7.726;2022-12-11T07:46:36;97724.22;;;6.47;53.56
58467;BME280;44255;49.244;7.726;2022-12-11T07:49:01;97721.97;;;6.63;53.11
58467;BME280;44255;49.244;7.726;2022-12-11T07:51:29;97725.28;;;6.11;54.40
58467;BME280;44255;49.244;7.726;2022-12-11T07:53:58;97729.81;;;6.36;53.98
58467;BME280;44255;49.244;7.726;2022-12-11T07:56:24;97738.63;;;6.06;54.46
58467;BME280;44255;49.244;7.726;2022-12-11T07:58:50;97732.44;;;5.74;55.94
58467;BME280;44255;49.244;7.726;2022-12-11T08:01:16;97734.47;;;5.96;55.02
58467;BME280;44255;49.244;7.726;2022-12-11T08:03:41;97732.09;;;5.87;55.29
58467;BME280;44255;49.244;7.726;2022-12-11T08:06:07;97733.38;;;6.05;54.79
58467;BME280;44255;49.244;7.726;2022-12-11T08:08:32;97736.97;;;6.02;55.11
58467;BME280;44255;49.244;7.726;2022-12-11T08:11:01;97732.00;;;6.21;54.45
58467;BME280;44255;49.244;7.726;2022-12-11T08:13:27;97729.59;;;5.80;55.66
58467;BME280;44255;49.244;7.726;2022-12-11T08:15:52;97740.44;;;6.04;54.84
58467;BME280;44255;49.244;7.726;2022-12-11T08:18:17;97736.09;;;6.02;55.36
58467;BME280;44255;49.244;7.726;2022-12-11T08:20:43;97733.69;;;5.92;55.26
58467;BME280;44255;49.244;7.726;2022-12-11T08:23:08;97732.16;;;6.17;55.08
58467;BME280;44255;49.244;7.726;2022-12-11T08:25:33;97736.13;;;6.00;55.17
58467;BME280;44255;49.244;7.726;2022-12-11T08:27:59;97730.41;;;6.16;54.54
58467;BME280;44255;49.244;7.726;2022-12-11T08:30:24;97724.38;;;6.42;54.26
58467;BME280;44255;49.244;7.726;2022-12-11T08:32:49;97727.59;;;6.52;54.04
58467;BME280;44255;49.244;7.726;2022-12-11T08:35:14;97729.56;;;6.15;54.62
58467;BME280;44255;49.244;7.726;2022-12-11T08:37:40;97728.19;;;6.32;54.45
58467;BME280;44255;49.244;7.726;2022-12-11T08:40:05;97732.94;;;6.50;54.37
58467;BME280;44255;49.244;7.726;2022-12-11T08:42:30;97733.31;;;6.08;55.14
58467;BME280;44255;49.244;7.726;2022-12-11T08:44:55;97738.91;;;6.55;54.14
58467;BME280;44255;49.244;7.726;2022-12-11T08:47:21;97738.50;;;6.11;54.61
58467;BME280;44255;49.244;7.726;2022-12-11T08:49:47;97736.16;;;6.30;54.45
58467;BME280;44255;49.244;7.726;2022-12-11T08:52:12;97735.13;;;6.64;54.05
58467;BME280;44255;49.244;7.726;2022-12-11T08:54:37;97734.56;;;6.83;53.39
58467;BME280;44255;49.244;7.726;2022-12-11T08:57:02;97730.88;;;6.30;54.16
58467;BME280;44255;49.244;7.726;2022-12-11T08:59:28;97723.13;;;6.54;53.85
58467;BME280;44255;49.244;7.726;2022-12-11T09:01:53;97722.72;;;6.66;53.46
58467;BME280;44255;49.244;7.726;2022-12-11T09:04:18;97725.47;;;6.63;53.38
58467;BME280;44255;49.244;7.726;2022-12-11T09:06:44;97720.66;;;6.48;53.90
58467;BME280;44255;49.244;7.726;2022-12-11T09:09:09;97716.88;;;6.57;53.82
58467;BME280;44255;49.244;7.726;2022-12-11T09:11:35;97721.88;;;6.37;54.11
58467;BME280;44255;49.244;7.726;2022-12-11T09:14:00;97721.91;;;6.36;53.55
58467;BME280;44255;49.244;7.726;2022-12-11T09:16:26;97717.94;;;6.51;53.54
58467;BME280;44255;49.244;7.726;2022-12-11T09:18:52;97725.00;;;6.50;53.97
58467;BME280;44255;49.244;7.726;2022-12-11T09:21:19;97717.53;;;6.63;53.58
58467;BME280;44255;49.244;7.726;2022-12-11T09:23:45;97716.00;;;6.28;54.30
58467;BME280;44255;49.244;7.726;2022-12-11T09:26:11;97709.47;;;6.68;53.24
58467;BME280;44255;49.244;7.726;2022-12-11T09:28:37;97709.38;;;6.43;53.27
58467;BME280;44255;49.244;7.726;2022-12-11T09:31:12;97722.13;;;6.58;53.25
58467;BME280;44255;49.244;7.726;2022-12-11T09:33:39;97722.09;;;6.60;53.11
58467;BME280;44255;49.244;7.726;2022-12-11T09:36:04;97714.47;;;6.77;52.63
58467;BME280;44255;49.244;7.726;2022-12-11T09:38:30;97713.97;;;6.06;54.90
58467;BME280;44255;49.244;7.726;2022-12-11T09:40:55;97715.47;;;6.45;53.15
58467;BME280;44255;49.244;7.726;2022-12-11T09:45:52;97707.84;;;6.35;53.76
58467;BME280;44255;49.244;7.726;2022-12-11T09:48:19;97708.22;;;6.51;53.36
58467;BME280;44255;49.244;7.726;2022-12-11T09:50:45;97720.59;;;6.21;53.75
58467;BME280;44255;49.244;7.726;2022-12-11T09:53:14;97714.75;;;6.09;54.43
58467;BME280;44255;49.244;7.726;2022-12-11T09:55:49;97707.88;;;6.62;53.03
58467;BME280;44255;49.244;7.726;2022-12-11T10:01:02;97705.81;;;6.14;54.62
58467;BME280;44255;49.244;7.726;2022-12-11T10:06:11;97697.34;;;6.32;53.76
58467;BME280;44255;49.244;7.726;2022-12-11T10:11:22;97697.28;;;6.35;53.66
58467;BME280;44255;49.244;7.726;2022-12-11T10:13:57;97693.22;;;6.80;52.47
58467;BME280;44255;49.244;7.726;2022-12-11T10:16:35;97684.13;;;6.32;53.51
58467;BME280;44255;49.244;7.726;2022-12-11T10:19:03;97679.50;;;6.10;54.90
58467;BME280;44255;49.244;7.726;2022-12-11T10:21:29;97678.22;;;6.24;54.69
58467;BME280;44255;49.244;7.726;2022-12-11T10:24:00;97669.97;;;6.63;53.22
58467;BME280;44255;49.244;7.726;2022-12-11T10:26:28;97674.56;;;6.85;52.85
58467;BME280;44255;49.244;7.726;2022-12-11T10:28:56;97668.19;;;7.18;52.12
58467;BME280;44255;49.244;7.726;2022-12-11T10:31:25;97667.94;;;6.72;52.82
58467;BME280;44255;49.244;7.726;2022-12-11T10:33:53;97661.72;;;7.00;52.30
58467;BME280;44255;49.244;7.726;2022-12-11T10:36:24;97656.47;;;7.25;51.36
58467;BME280;44255;49.244;7.726;2022-12-11T10:38:50;97651.44;;;8.16;49.26
58467;BME280;44255;49.244;7.726;2022-12-11T10:41:17;97652.81;;;8.26;48.85
58467;BME280;44255;49.244;7.726;2022-12-11T10:43:43;97645.66;;;8.04;49.35
58467;BME280;44255;49.244;7.726;2022-12-11T10:46:20;97637.41;;;8.36;48.06
58467;BME280;44255;49.244;7.726;2022-12-11T10:51:10;97632.97;;;8.14;49.18
58467;BME280;44255;49.244;7.726;2022-12-11T10:53:36;97634.75;;;7.90;49.41
58467;BME280;44255;49.244;7.726;2022-12-11T10:56:01;97637.44;;;7.64;49.46
58467;BME280;44255;49.244;7.726;2022-12-11T10:58:27;97634.31;;;7.53;49.54
58467;BME280;44255;49.244;7.726;2022-12-11T11:01:04;97627.31;;;8.00;49.47
58467;BME280;44255;49.244;7.726;2022-12-11T11:03:30;97636.72;;;8.08;49.26
58467;BME280;44255;49.244;7.726;2022-12-11T11:06:03;97633.44;;;7.52;50.05
58467;BME280;44255;49.244;7.726;2022-12-11T11:08:28;97620.94;;;8.05;48.66
58467;BME280;44255;49.244;7.726;2022-12-11T11:11:01;97614.16;;;8.20;48.37
58467;BME280;44255;49.244;7.726;2022-12-11T11:13:27;97621.81;;;8.28;48.67
58467;BME280;44255;49.244;7.726;2022-12-11T11:18:25;97612.78;;;8.10;48.84
58467;BME280;44255;49.244;7.726;2022-12-11T11:20:51;97617.72;;;8.19;48.58
58467;BME280;44255;49.244;7.726;2022-12-11T11:23:16;97616.69;;;8.23;48.30
58467;BME280;44255;49.244;7.726;2022-12-11T11:25:55;97611.63;;;8.17;48.64
58467;BME280;44255;49.244;7.726;2022-12-11T11:28:23;97618.41;;;8.24;48.66
58467;BME280;44255;49.244;7.726;2022-12-11T11:30:57;97616.31;;;7.87;48.65
58467;BME280;44255;49.244;7.726;2022-12-11T11:33:23;97612.38;;;7.49;49.73
58467;BME280;44255;49.244;7.726;2022-12-11T11:35:59;97609.06;;;7.92;49.48
58467;BME280;44255;49.244;7.726;2022-12-11T11:41:43;97615.75;;;8.24;48.25
58467;BME280;44255;49.244;7.726;2022-12-11T11:43:47;97629.25;;;7.47;50.45
58467;BME280;44255;49.244;7.726;2022-12-11T11:46:16;97617.44;;;7.81;49.66
58467;BME280;44255;49.244;7.726;2022-12-11T11:51:13;97608.28;;;7.90;49.00
58467;BME280;44255;49.244;7.726;2022-12-11T11:53:39;97609.13;;;7.90;49.15
58467;BME280;44255;49.244;7.726;2022-12-11T11:56:21;97604.63;;;7.92;49.51
58467;BME280;44255;49.244;7.726;2022-12-11T11:58:56;97608.56;;;8.04;49.18
58467;BME280;44255;49.244;7.726;2022-12-11T12:01:25;97604.41;;;7.51;49.13
58467;BME280;44255;49.244;7.726;2022-12-11T12:03:50;97610.50;;;8.01;48.63
58467;BME280;44255;49.244;7.726;2022-12-11T12:06:34;97612.69;;;7.65;49.08
58467;BME280;44255;49.244;7.726;2022-12-11T12:09:13;97619.81;;;7.14;50.31
58467;BME280;44255;49.244;7.726;2022-12-11T12:22:15;97597.22;;;7.54;50.18
58467;BME280;44255;49.244;7.726;2022-12-11T12:29:56;97587.16;;;8.10;48.98
58467;BME280;44255;49.244;7.726;2022-12-11T12:35:13;97582.53;;;7.69;49.51
58467;BME280;44255;49.244;7.726;2022-12-11T12:42:44;97579.72;;;8.20;48.58
58467;BME280;44255;49.244;7.726;2022-12-11T12:47:38;97570.38;;;8.56;48.62
58467;BME280;44255;49.244;7.726;2022-12-11T12:50:09;97572.75;;;8.62;48.31
58467;BME280;44255;49.244;7.726;2022-12-11T12:52:35;97573.81;;;8.58;48.19
58467;BME280;44255;49.244;7.726;2022-12-11T12:55:13;97579.03;;;8.15;48.70
58467;BME280;44255;49.244;7.726;2022-12-11T12:57:47;97575.47;;;8.16;49.20
58467;BME280;44255;49.244;7.726;2022-12-11T13:00:13;97580.06;;;8.33;48.57
58467;BME280;44255;49.244;7.726;2022-12-11T13:02:49;97579.28;;;8.31;48.31
58467;BME280;44255;49.244;7.726;2022-12-11T13:05:31;97578.75;;;7.99;49.33
58467;BME280;44255;49.244;7.726;2022-12-11T13:08:01;97581.09;;;8.31;48.39
58467;BME280;44255;49.244;7.726;2022-12-11T13:10:29;97588.38;;;8.02;49.38
58467;BME280;44255;49.244;7.726;2022-12-11T13:12:54;97584.75;;;8.26;48.50
58467;BME280;44255;49.244;7.726;2022-12-11T13:15:33;97581.91;;;7.63;50.42
58467;BME280;44255;49.244;7.726;2022-12-11T13:17:59;97592.66;;;7.58;50.09
58467;BME280;44255;49.244;7.726;2022-12-11T13:20:26;97596.38;;;7.52;50.28
58467;BME280;44255;49.244;7.726;2022-12-11T13:22:53;97591.69;;;7.37;49.94
58467;BME280;44255;49.244;7.726;2022-12-11T13:25:20;97592.59;;;7.60;49.80
58467;BME280;44255;49.244;7.726;2022-12-11T13:27:46;97591.31;;;7.70;49.56
58467;BME280;44255;49.244;7.726;2022-12-11T13:32:38;97588.91;;;7.40;50.39
58467;BME280;44255;49.244;7.726;2022-12-11T13:35:05;97585.00;;;7.01;51.38
58467;BME280;44255;49.244;7.726;2022-12-11T13:37:35;97590.81;;;7.11;51.08
58467;BME280;44255;49.244;7.726;2022-12-11T13:40:04;97600.84;;;7.01;51.24
58467;BME280;44255;49.244;7.726;2022-12-11T13:42:33;97605.72;;;7.63;50.14
58467;BME280;44255;49.244;7.726;2022-12-11T13:44:59;97600.03;;;7.97;49.02
58467;BME280;44255;49.244;7.726;2022-12-11T13:47:25;97595.16;;;8.09;49.21
58467;BME280;44255;49.244;7.726;2022-12-11T13:49:54;97596.28;;;7.56;49.67
58467;BME280;44255;49.244;7.726;2022-12-11T13:52:24;97596.38;;;8.00;48.92
58467;BME280;44255;49.244;7.726;2022-12-11T13:54:52;97595.03;;;7.90;49.29
58467;BME280;44255;49.244;7.726;2022-12-11T13:57:19;97592.88;;;7.76;48.83
58467;BME280;44255;49.244;7.726;2022-12-11T14:00:03;97605.88;;;7.58;49.39
58467;BME280;44255;49.244;7.726;2022-12-11T14:04:54;97608.47;;;8.07;48.36
58467;BME280;44255;49.244;7.726;2022-12-11T14:07:28;97614.88;;;7.54;49.37
58467;BME280;44255;49.244;7.726;2022-12-11T14:09:57;97620.44;;;7.70;48.87
58467;BME280;44255;49.244;7.726;2022-12-11T14:12:23;97618.72;;;7.69;48.82
58467;BME280;44255;49.244;7.726;2022-12-11T14:14:49;97615.69;;;7.80;48.72
58467;BME280;44255;49.244;7.726;2022-12-11T14:17:18;97626.22;;;7.58;49.18
58467;BME280;44255;49.244;7.726;2022-12-11T14:19:45;97620.59;;;7.42;49.80
58467;BME280;44255;49.244;7.726;2022-12-11T14:22:18;97627.03;;;7.83;48.88
58467;BME280;44255;49.244;7.726;2022-12-11T14:24:48;97623.81;;;7.75;48.77
58467;BME280;44255;49.244;7.726;2022-12-11T14:27:15;97626.78;;;7.42;49.40
58467;BME280;44255;49.244;7.726;2022-12-11T14:29:40;97624.31;;;7.85;48.87
58467;BME280;44255;49.244;7.726;2022-12-11T14:32:05;97628.72;;;7.62;49.15
58467;BME280;44255;49.244;7.726;2022-12-11T14:34:33;97630.66;;;8.05;48.36
58467;BME280;44255;49.244;7.726;2022-12-11T14:36:59;97629.47;;;7.90;48.70
58467;BME280;44255;49.244;7.726;2022-12-11T14:39:27;97624.25;;;8.10;48.50
58467;BME280;44255;49.244;7.726;2022-12-11T14:42:09;97627.59;;;7.68;49.77
58467;BME280;44255;49.244;7.726;2022-12-11T14:47:15;97634.34;;;8.01;48.75
58467;BME280;44255;49.244;7.726;2022-12-11T14:50:01;97630.41;;;8.11;48.02
58467;BME280;44255;49.244;7.726;2022-12-11T14:52:29;97630.69;;;8.03;48.06
58467;BME280;44255;49.244;7.726;2022-12-11T14:54:58;97633.00;;;7.65;49.43
58467;BME280;44255;49.244;7.726;2022-12-11T14:57:25;97638.31;;;8.13;47.88
58467;BME280;44255;49.244;7.726;2022-12-11T14:59:52;97636.59;;;8.11;47.81
58467;BME280;44255;49.244;7.726;2022-12-11T15:04:58;97627.59;;;8.16;47.57
58467;BME280;44255;49.244;7.726;2022-12-11T15:07:24;97633.56;;;8.21;48.31
58467;BME280;44255;49.244;7.726;2022-12-11T15:09:50;97633.16;;;8.32;47.78
58467;BME280;44255;49.244;7.726;2022-12-11T15:12:16;97627.47;;;8.41;47.44
58467;BME280;44255;49.244;7.726;2022-12-11T15:14:47;97633.47;;;8.24;47.55
58467;BME280;44255;49.244;7.726;2022-12-11T15:17:12;97630.06;;;8.20;47.50
58467;BME280;44255;49.244;7.726;2022-12-11T15:19:38;97628.03;;;8.27;47.18
58467;BME280;44255;49.244;7.726;2022-12-11T15:22:04;97632.13;;;8.12;47.91
58467;BME280;44255;49.244;7.726;2022-12-11T15:26:58;97631.75;;;8.23;48.18
58467;BME280;44255;49.244;7.726;2022-12-11T15:29:35;97642.44;;;8.20;48.01
58467;BME280;44255;49.244;7.726;2022-12-11T15:34:33;97644.34;;;8.38;47.52
58467;BME280;44255;49.244;7.726;2022-12-11T15:36:58;97647.44;;;8.51;47.54
58467;BME280;44255;49.244;7.726;2022-12-11T15:39:23;97645.50;;;8.33;47.42
58467;BME280;44255;49.244;7.726;2022-12-11T15:41:49;97644.69;;;8.07;47.99
58467;BME280;44255;49.244;7.726;2022-12-11T15:44:18;97642.13;;;8.05;47.84
58467;BME280;44255;49.244;7.726;2022-12-11T15:46:44;97653.47;;;7.85;48.10
58467;BME280;44255;49.244;7.726;2022-12-11T15:49:10;97653.63;;;8.28;47.84
58467;BME280;44255;49.244;7.726;2022-12-11T15:51:36;97658.47;;;7.93;48.18
58467;BME280;44255;49.244;7.726;2022-12-11T15:54:02;97652.13;;;7.73;48.28
58467;BME280;44255;49.244;7.726;2022-12-11T15:56:27;97645.66;;;8.04;48.18
58467;BME280;44255;49.244;7.726;2022-12-11T15:59:01;97653.63;;;8.04;48.06
58467;BME280;44255;49.244;7.726;2022-12-11T16:01:27;97658.69;;;8.10;47.67
58467;BME280;44255;49.244;7.726;2022-12-11T16:03:52;97658.88;;;8.06;47.55
58467;BME280;44255;49.244;7.726;2022-12-11T16:06:17;97648.63;;;7.96;48.09
58467;BME280;44255;49.244;7.726;2022-12-11T16:08:42;97657.25;;;8.02;47.16
58467;BME280;44255;49.244;7.726;2022-12-11T16:11:08;97653.69;;;8.03;47.25
58467;BME280;44255;49.244;7.726;2022-12-11T16:13:36;97660.16;;;7.70;47.87
58467;BME280;44255;49.244;7.726;2022-12-11T16:16:01;97658.81;;;7.83;47.84
58467;BME280;44255;49.244;7.726;2022-12-11T16:18:26;97654.22;;;7.89;47.85
58467;BME280;44255;49.244;7.726;2022-12-11T16:20:51;97653.31;;;7.90;48.33
58467;BME280;44255;49.244;7.726;2022-12-11T16:23:17;97651.13;;;8.23;46.81
58467;BME280;44255;49.244;7.726;2022-12-11T16:25:43;97641.59;;;8.19;47.65
58467;BME280;44255;49.244;7.726;2022-12-11T16:28:09;97649.75;;;8.13;47.45
58467;BME280;44255;49.244;7.726;2022-12-11T16:30:35;97644.25;;;8.42;46.77
58467;BME280;44255;49.244;7.726;2022-12-11T16:33:01;97646.13;;;8.39;46.79
58467;BME280;44255;49.244;7.726;2022-12-11T16:35:27;97641.66;;;8.40;46.58
58467;BME280;44255;49.244;7.726;2022-12-11T16:37:52;97643.13;;;8.01;47.80
58467;BME280;44255;49.244;7.726;2022-12-11T16:40:18;97647.22;;;8.10;47.47
58467;BME280;44255;49.244;7.726;2022-12-11T16:42:43;97642.56;;;8.17;47.69
58467;BME280;44255;49.244;7.726;2022-12-11T16:45:19;97640.28;;;8.30;47.00
58467;BME280;44255;49.244;7.726;2022-12-11T16:47:44;97640.06;;;8.12;46.87
58467;BME280;44255;49.244;7.726;2022-12-11T16:50:10;97642.75;;;7.88;47.93
58467;BME280;44255;49.244;7.726;2022-12-11T16:52:35;97638.09;;;7.71;48.38
58467;BME280;44255;49.244;7.726;2022-12-11T16:55:00;97635.69;;;7.89;47.93
58467;BME280;44255;49.244;7.726;2022-12-11T16:57:25;97638.78;;;7.76;48.04
58467;BME280;44255;49.244;7.726;2022-12-11T16:59:51;97635.69;;;7.89;47.46
58467;BME280;44255;49.244;7.726;2022-12-11T17:02:16;97640.28;;;8.07;47.36
58467;BME280;44255;49.244;7.726;2022-12-11T17:04:41;97638.19;;;8.16;46.88
58467;BME280;44255;49.244;7.726;2022-12-11T17:07:06;97628.47;;;8.16;47.32
58467;BME280;44255;49.244;7.726;2022-12-11T17:09:31;97633.47;;;8.00;47.32
58467;BME280;44255;49.244;7.726;2022-12-11T17:11:57;97625.53;;;8.00;47.94
58467;BME280;44255;49.244;7.726;2022-12-11T17:14:22;97626.91;;;7.87;48.14
58467;BME280;44255;49.244;7.726;2022-12-11T17:16:47;97622.25;;;7.93;47.69
58467;BME280;44255;49.244;7.726;2022-12-11T17:19:13;97617.75;;;7.95;47.92
58467;BME280;44255;49.244;7.726;2022-12-11T17:21:38;97611.81;;;8.13;47.15
58467;BME280;44255;49.244;7.726;2022-12-11T17:24:03;97621.06;;;8.24;46.76
58467;BME280;44255;49.244;7.726;2022-12-11T17:26:29;97619.00;;;8.09;47.41
58467;BME280;44255;49.244;7.726;2022-12-11T17:28:55;97628.25;;;8.21;47.28
58467;BME280;44255;49.244;7.726;2022-12-11T17:31:20;97614.38;;;7.92;48.02
58467;BME280;44255;49.244;7.726;2022-12-11T17:33:45;97613.66;;;8.10;47.90
58467;BME280;44255;49.244;7.726;2022-12-11T17:36:12;97623.66;;;8.26;47.26
58467;BME280;44255;49.244;7.726;2022-12-11T17:38:37;97615.84;;;8.23;47.78
58467;BME280;44255;49.244;7.726;2022-12-11T17:41:06;97610.09;;;8.11;47.44
58467;BME280;44255;49.244;7.726;2022-12-11T17:43:31;97611.50;;;8.20;47.37
58467;BME280;44255;49.244;7.726;2022-12-11T17:45:56;97605.59;;;8.14;47.58
58467;BME280;44255;49.244;7.726;2022-12-11T17:48:21;97611.56;;;8.19;48.07
58467;BME280;44255;49.244;7.726;2022-12-11T17:50:48;97609.78;;;7.73;48.41
58467;BME280;44255;49.244;7.726;2022-12-11T17:53:14;97605.13;;;8.02;48.59
58467;BME280;44255;49.244;7.726;2022-12-11T17:55:40;97604.22;;;8.25;48.05
58467;BME280;44255;49.244;7.726;2022-12-11T17:58:09;97602.88;;;8.15;47.78
58467;BME280;44255;49.244;7.726;2022-12-11T18:00:36;97607.00;;;7.76;48.56
58467;BME280;44255;49.244;7.726;2022-12-11T18:03:01;97599.16;;;7.97;48.10
58467;BME280;44255;49.244;7.726;2022-12-11T18:05:28;97608.94;;;7.95;48.13
58467;BME280;44255;49.244;7.726;2022-12-11T18:07:53;97606.84;;;8.03;48.68
58467;BME280;44255;49.244;7.726;2022-12-11T18:10:18;97609.63;;;8.00;48.38
58467;BME280;44255;49.244;7.726;2022-12-11T18:12:43;97605.91;;;8.28;48.09
58467;BME280;44255;49.244;7.726;2022-12-11T18:15:09;97617.19;;;8.33;48.24
58467;BME280;44255;49.244;7.726;2022-12-11T18:17:34;97621.84;;;8.50;47.15
58467;BME280;44255;49.244;7.726;2022-12-11T18:19:59;97617.41;;;8.51;46.98
58467;BME280;44255;49.244;7.726;2022-12-11T18:22:25;97617.53;;;8.46;46.93
58467;BME280;44255;49.244;7.726;2022-12-11T18:24:50;97622.56;;;8.54;46.33
58467;BME280;44255;49.244;7.726;2022-12-11T18:27:15;97625.13;;;8.33;47.15
58467;BME280;44255;49.244;7.726;2022-12-11T18:29:40;97614.25;;;8.63;46.24
58467;BME280;44255;49.244;7.726;2022-12-11T18:32:06;97617.41;;;8.51;46.08
58467;BME280;44255;49.244;7.726;2022-12-11T18:34:31;97614.53;;;8.33;47.12
58467;BME280;44255;49.244;7.726;2022-12-11T18:36:56;97616.63;;;8.25;47.23
58467;BME280;44255;49.244;7.726;2022-12-11T18:39:22;97614.59;;;7.86;47.36
58467;BME280;44255;49.244;7.726;2022-12-11T18:41:47;97612.06;;;7.82;47.58